createdAt,value
2018-12-06T00:00:29.540Z,32.53
2018-12-06T00:05:46.369Z,34.87
2018-12-06T00:08:17.666Z,37.07
2018-12-06T00:16:40.221Z,51.20
2018-12-06T00:22:05.627Z,56.40
2018-12-06T00:24:35.358Z,54.23
2018-12-06T00:27:08.614Z,54.10
2018-12-06T00:29:36.961Z,56.97
2018-12-06T00:32:05.759Z,58.07
2018-12-06T00:34:34.052Z,53.57
2018-12-06T00:37:02.472Z,63.97
2018-12-06T00:39:30.824Z,54.70
2018-12-06T00:41:59.286Z,64.50
2018-12-06T00:44:27.765Z,65.27
2018-12-06T00:46:56.185Z,60.87
2018-12-06T00:49:25.953Z,59.23
2018-12-06T00:51:58.228Z,62.97
2018-12-06T00:54:29.804Z,64.10
2018-12-06T00:56:58.260Z,60.03
2018-12-06T00:59:26.565Z,65.00
2018-12-06T01:01:56.740Z,68.70
2018-12-06T01:04:25.328Z,64.77
2018-12-06T01:06:53.870Z,65.93
2018-12-06T01:09:25.785Z,67.90
2018-12-06T01:11:54.577Z,64.07
2018-12-06T01:14:27.277Z,73.93
2018-12-06T01:17:07.308Z,60.50
2018-12-06T01:19:36.040Z,61.83
2018-12-06T01:22:06.738Z,53.07
2018-12-06T01:24:35.228Z,56.87
2018-12-06T01:27:03.460Z,54.73
2018-12-06T01:29:37.917Z,52.27
2018-12-06T01:32:06.294Z,53.13
2018-12-06T01:34:35.393Z,50.43
2018-12-06T01:37:03.960Z,49.77
2018-12-06T01:42:12.171Z,50.63
2018-12-06T01:44:40.591Z,51.17
2018-12-06T01:47:10.705Z,54.10
2018-12-06T01:49:39.063Z,52.17
2018-12-06T01:52:08.625Z,55.53
2018-12-06T01:54:37.036Z,51.60
2018-12-06T01:57:05.393Z,55.67
2018-12-06T01:59:34.103Z,58.97
2018-12-06T02:02:02.448Z,60.30
2018-12-06T02:04:31.088Z,61.87
2018-12-06T02:06:59.421Z,62.13
2018-12-06T02:09:28.156Z,63.17
2018-12-06T02:11:56.879Z,63.53
2018-12-06T02:14:25.264Z,65.23
2018-12-06T02:16:53.570Z,68.83
2018-12-06T02:19:33.381Z,62.87
2018-12-06T02:22:02.035Z,62.17
2018-12-06T02:24:30.640Z,61.80
2018-12-06T02:27:01.004Z,71.43
2018-12-06T02:29:33.582Z,66.37
2018-12-06T02:32:03.024Z,69.00
2018-12-06T02:34:31.402Z,62.77
2018-12-06T02:39:55.653Z,55.57
2018-12-06T02:42:26.332Z,69.87
2018-12-06T02:45:00.824Z,65.60
2018-12-06T02:47:39.881Z,65.83
2018-12-06T02:50:08.441Z,61.90
2018-12-06T02:52:36.769Z,68.57
2018-12-06T02:55:05.201Z,67.90
2018-12-06T02:57:38.289Z,67.43
2018-12-06T03:05:48.593Z,69.13
2018-12-06T03:08:16.789Z,69.10
2018-12-06T03:10:45.531Z,65.33
2018-12-06T03:13:14.162Z,68.67
2018-12-06T03:15:42.546Z,65.23
2018-12-06T03:18:13.884Z,69.77
2018-12-06T03:20:42.153Z,79.93
2018-12-06T03:23:10.585Z,67.93
2018-12-06T03:25:40.431Z,75.83
2018-12-06T03:28:10.199Z,72.50
2018-12-06T03:30:45.334Z,68.57
2018-12-06T03:33:16.282Z,72.47
2018-12-06T03:35:44.586Z,69.93
2018-12-06T03:38:12.928Z,71.77
2018-12-06T03:40:54.598Z,79.37
2018-12-06T03:43:23.202Z,75.57
2018-12-06T03:48:47.754Z,70.10
2018-12-06T03:51:16.759Z,76.23
2018-12-06T03:54:01.445Z,78.63
2018-12-06T04:02:13.230Z,75.13
2018-12-06T04:04:51.573Z,69.70
2018-12-06T04:10:23.612Z,79.20
2018-12-06T04:15:50.047Z,73.77
2018-12-06T04:18:18.418Z,84.03
2018-12-06T04:20:58.534Z,80.70
2018-12-06T04:26:32.567Z,82.70
2018-12-06T04:29:01.537Z,77.80
2018-12-06T04:31:29.902Z,80.47
2018-12-06T04:40:03.183Z,76.90
2018-12-06T04:42:33.541Z,83.17
2018-12-06T04:45:03.588Z,85.93
2018-12-06T04:47:43.596Z,78.00
2018-12-06T04:50:23.548Z,80.53
2018-12-06T04:52:52.133Z,88.27
2018-12-06T04:58:25.759Z,78.93
2018-12-06T05:00:55.044Z,81.33
2018-12-06T05:03:24.484Z,77.70
2018-12-06T05:05:53.984Z,70.40
2018-12-06T05:08:24.868Z,78.63
2018-12-06T05:13:48.984Z,75.30
2018-12-06T05:16:18.624Z,79.30
2018-12-06T05:18:47.681Z,75.17
2018-12-06T05:21:16.708Z,74.50
2018-12-06T05:23:45.112Z,66.53
2018-12-06T05:26:13.453Z,64.40
2018-12-06T05:28:41.824Z,70.20
2018-12-06T05:31:14.618Z,68.47
2018-12-06T05:33:43.273Z,74.67
2018-12-06T05:42:04.323Z,60.53
2018-12-06T05:44:42.710Z,54.53
2018-12-06T05:47:11.159Z,59.13
2018-12-06T05:49:40.121Z,56.13
2018-12-06T05:52:16.279Z,51.47
2018-12-06T05:54:44.674Z,50.57
2018-12-06T05:57:12.899Z,54.67
2018-12-06T05:59:41.251Z,47.87
2018-12-06T06:02:09.558Z,38.10
2018-12-06T06:04:37.767Z,46.33
2018-12-06T06:07:06.129Z,45.83
2018-12-06T06:09:34.844Z,38.13
2018-12-06T06:12:03.470Z,44.80
2018-12-06T06:14:31.841Z,41.20
2018-12-06T06:17:00.154Z,44.87
2018-12-06T06:19:28.254Z,38.77
2018-12-06T06:21:56.894Z,40.63
2018-12-06T06:24:34.755Z,37.97
2018-12-06T06:27:03.741Z,39.60
2018-12-06T06:32:33.649Z,35.37
2018-12-06T06:35:15.163Z,39.27
2018-12-06T06:40:53.614Z,35.70
2018-12-06T06:43:39.570Z,32.93
2018-12-06T06:46:21.127Z,40.00
2018-12-06T06:49:01.025Z,30.73
2018-12-06T06:57:24.033Z,26.10
2018-12-06T07:00:04.455Z,26.63
2018-12-06T07:05:45.751Z,23.37
2018-12-06T07:20:11.684Z,19.47
2018-12-06T07:28:25.287Z,13.80
2018-12-06T07:45:33.826Z,12.90
2018-12-06T07:48:12.775Z,10.57
2018-12-06T07:50:53.766Z,15.33
2018-12-06T07:53:32.712Z,13.83
2018-12-06T07:59:11.948Z,10.70
2018-12-06T08:07:40.857Z,14.37
2018-12-06T08:10:22.113Z,18.17
2018-12-06T08:13:02.321Z,15.57
2018-12-06T08:15:37.450Z,16.57
2018-12-06T08:18:16.848Z,13.20
2018-12-06T08:20:56.880Z,17.90
2018-12-06T08:23:35.636Z,22.00
2018-12-06T08:26:14.016Z,14.97
2018-12-06T08:28:54.944Z,15.77
2018-12-06T08:31:33.254Z,16.57
2018-12-06T08:34:08.181Z,19.90
2018-12-06T08:36:48.089Z,15.63
2018-12-06T08:39:20.354Z,14.27
2018-12-06T08:41:50.028Z,17.00
2018-12-06T08:44:21.415Z,16.23
2018-12-06T08:47:01.796Z,19.27
2018-12-06T08:49:46.806Z,17.63
2018-12-06T08:52:28.804Z,13.07
2018-12-06T08:55:08.147Z,19.43
2018-12-06T08:57:48.849Z,14.57
2018-12-06T09:00:29.586Z,13.90
2018-12-06T09:03:10.537Z,12.33
2018-12-06T09:19:59.260Z,12.63
2018-12-06T09:41:58.193Z,23.57
2018-12-06T09:44:27.866Z,20.50
2018-12-06T09:46:58.535Z,22.97
2018-12-06T09:49:37.229Z,21.37
2018-12-06T09:52:18.003Z,18.23
2018-12-06T10:00:50.264Z,22.60
2018-12-06T10:03:20.152Z,17.40
2018-12-06T10:05:50.880Z,18.77
2018-12-06T10:08:20.331Z,22.07
2018-12-06T10:13:57.806Z,26.87
2018-12-06T10:19:35.317Z,22.60
2018-12-06T10:22:17.858Z,19.67
2018-12-06T10:27:56.351Z,26.43
2018-12-06T10:33:30.899Z,30.20
2018-12-06T10:39:11.876Z,31.90
2018-12-06T10:41:56.024Z,21.13
2018-12-06T10:44:32.347Z,22.17
2018-12-06T10:47:12.850Z,25.00
2018-12-06T10:49:53.491Z,17.67
2018-12-06T10:55:19.812Z,25.33
2018-12-06T10:57:57.528Z,18.17
2018-12-06T11:03:33.126Z,25.47
2018-12-06T11:06:13.317Z,25.43
2018-12-06T11:08:47.511Z,24.40
2018-12-06T11:11:26.406Z,26.87
2018-12-06T12:51:06.383Z,19.67
2018-12-06T12:56:22.068Z,16.93
2018-12-06T12:58:50.587Z,23.30
2018-12-06T13:01:31.069Z,25.90
2018-12-06T13:03:59.717Z,26.43
2018-12-06T13:06:28.528Z,23.53
2018-12-06T13:08:57.244Z,26.57
2018-12-06T13:11:37.763Z,27.20
2018-12-06T13:14:15.478Z,17.03
2018-12-06T13:16:49.504Z,28.67
2018-12-06T13:19:19.329Z,24.43
2018-12-06T13:24:43.002Z,35.07
2018-12-06T13:27:13.686Z,25.63
2018-12-06T13:32:28.881Z,26.57
2018-12-06T13:34:57.792Z,26.70
2018-12-06T13:37:26.633Z,26.63
2018-12-06T13:42:45.904Z,32.47
2018-12-06T13:45:16.459Z,23.73
2018-12-06T13:47:49.460Z,23.50
2018-12-06T13:50:33.777Z,23.03
2018-12-06T13:53:02.253Z,29.33
2018-12-06T13:55:37.592Z,24.70
2018-12-06T13:58:13.840Z,20.63
2018-12-06T14:00:53.022Z,30.43
2018-12-06T14:03:23.751Z,25.80
2018-12-06T14:05:56.255Z,23.13
2018-12-06T14:08:26.013Z,21.20
2018-12-06T14:11:10.703Z,18.10
2018-12-06T14:13:39.590Z,21.67
2018-12-06T14:16:10.603Z,18.90
2018-12-06T14:18:39.397Z,12.60
2018-12-06T14:21:17.362Z,10.63
2018-12-06T14:23:45.846Z,11.33
2018-12-06T14:26:26.479Z,14.13
2018-12-06T14:37:45.816Z,12.13
2018-12-06T14:40:14.242Z,7.83
2018-12-06T14:42:42.461Z,7.03
2018-12-06T14:45:10.597Z,11.43
2018-12-06T14:47:38.903Z,11.97
2018-12-06T14:50:08.401Z,11.63
2018-12-06T14:52:36.665Z,11.80
2018-12-06T14:55:05.314Z,11.33
2018-12-06T14:57:33.459Z,7.17
2018-12-06T15:00:01.681Z,10.07
2018-12-06T15:02:30.137Z,11.87
2018-12-06T15:04:58.234Z,11.00
2018-12-06T15:07:26.459Z,8.40
2018-12-06T15:09:54.713Z,9.37
2018-12-06T15:12:22.892Z,10.27
2018-12-06T15:14:51.067Z,8.30
2018-12-06T15:17:19.324Z,13.87
2018-12-06T15:19:47.512Z,10.53
2018-12-06T15:22:15.792Z,7.27
2018-12-06T15:24:44.083Z,11.97
2018-12-06T15:27:12.556Z,7.47
2018-12-06T15:29:40.963Z,8.53
2018-12-06T15:32:09.405Z,8.23
2018-12-06T15:34:37.619Z,10.87
2018-12-06T15:37:05.869Z,8.37
2018-12-06T15:39:34.843Z,10.60
2018-12-06T15:42:03.107Z,8.77
2018-12-06T15:44:31.203Z,5.90
2018-12-06T15:46:59.624Z,9.03
2018-12-06T15:49:27.853Z,8.50
2018-12-06T15:51:57.186Z,10.10
2018-12-06T15:54:25.648Z,8.20
2018-12-06T15:56:54.048Z,9.27
2018-12-06T15:59:22.190Z,9.83
2018-12-06T16:01:50.471Z,8.97
2018-12-06T16:04:18.653Z,8.70
2018-12-06T16:06:47.376Z,7.17
2018-12-06T16:09:15.683Z,10.80
2018-12-06T16:11:44.009Z,6.43
2018-12-06T16:14:12.881Z,9.10
2018-12-06T16:16:41.460Z,10.97
2018-12-06T16:19:09.668Z,13.00
2018-12-06T16:21:37.944Z,16.40
2018-12-06T16:24:06.632Z,11.47
2018-12-06T16:26:34.803Z,13.27
2018-12-06T16:29:03.019Z,13.77
2018-12-06T16:31:31.133Z,12.77
2018-12-06T16:33:59.474Z,22.57
2018-12-06T16:36:28.079Z,9.03
2018-12-06T16:41:52.739Z,17.27
2018-12-06T16:44:21.166Z,16.87
2018-12-06T16:46:49.353Z,16.67
2018-12-06T16:49:18.257Z,14.90
2018-12-06T16:51:47.614Z,16.37
2018-12-06T16:54:16.032Z,12.80
2018-12-06T16:56:44.313Z,19.20
2018-12-06T16:59:12.618Z,14.70
2018-12-06T17:01:40.765Z,15.33
2018-12-06T17:04:08.919Z,11.20
2018-12-06T17:06:37.564Z,15.83
2018-12-06T17:09:16.276Z,15.30
2018-12-06T17:11:44.669Z,16.27
2018-12-06T17:14:13.165Z,14.80
2018-12-06T17:16:41.436Z,19.83
2018-12-06T17:19:09.841Z,12.00
2018-12-06T17:21:37.978Z,18.00
2018-12-06T17:24:15.212Z,14.63
2018-12-06T17:26:43.574Z,19.90
2018-12-06T17:29:12.086Z,19.20
2018-12-06T17:34:20.325Z,18.33
2018-12-06T17:36:50.772Z,16.60
2018-12-06T17:42:17.117Z,15.00
2018-12-06T17:44:45.817Z,12.47
2018-12-06T17:47:14.307Z,17.00
2018-12-06T17:49:42.457Z,12.43
2018-12-06T17:52:10.642Z,11.73
2018-12-06T17:54:38.776Z,20.13
2018-12-06T17:57:06.971Z,17.60
2018-12-06T17:59:35.112Z,14.70
2018-12-06T18:02:05.049Z,16.07
2018-12-06T18:04:33.385Z,10.97
2018-12-06T18:07:01.456Z,14.07
2018-12-06T18:09:30.420Z,18.63
2018-12-06T18:12:01.382Z,13.90
2018-12-06T18:14:30.134Z,16.10
2018-12-06T18:17:00.049Z,15.17
2018-12-06T18:19:28.686Z,14.17
2018-12-06T18:21:56.877Z,12.13
2018-12-06T18:24:31.402Z,12.67
2018-12-06T18:26:59.510Z,17.27
2018-12-06T18:29:27.614Z,16.10
2018-12-06T18:31:55.798Z,12.70
2018-12-06T18:34:24.631Z,10.57
2018-12-06T18:36:52.887Z,5.97
2018-12-06T18:39:33.677Z,6.77
2018-12-06T18:42:02.568Z,6.20
2018-12-06T18:44:35.877Z,10.00
2018-12-06T18:47:04.838Z,9.60
2018-12-06T18:52:19.033Z,8.13
2018-12-06T18:54:48.373Z,9.83
2018-12-06T18:57:17.630Z,8.27
2018-12-06T18:59:46.269Z,11.93
2018-12-06T19:05:07.900Z,12.17
2018-12-06T19:07:36.432Z,18.60
2018-12-06T19:10:05.338Z,15.70
2018-12-06T19:12:34.096Z,18.17
2018-12-06T19:15:03.787Z,19.93
2018-12-06T19:17:33.209Z,19.07
2018-12-06T19:22:57.423Z,20.70
2018-12-06T19:25:26.033Z,28.57
2018-12-06T19:27:55.334Z,22.20
2018-12-06T19:30:24.911Z,25.97
2018-12-06T19:32:57.924Z,23.47
2018-12-06T19:35:23.519Z,24.90
2018-12-06T19:37:51.914Z,29.83
2018-12-06T19:40:20.482Z,23.10
2018-12-06T19:42:48.913Z,30.33
2018-12-06T19:45:17.088Z,31.70
2018-12-06T19:47:45.324Z,32.40
2018-12-06T19:50:14.475Z,37.57
2018-12-06T19:52:42.702Z,32.90
2018-12-06T19:55:10.874Z,42.60
2018-12-06T19:57:39.861Z,37.23
2018-12-06T20:00:08.514Z,36.57
2018-12-06T20:02:37.156Z,31.57
2018-12-06T20:05:05.666Z,38.07
2018-12-06T20:07:34.054Z,32.47
2018-12-06T20:10:02.384Z,33.23
2018-12-06T20:12:31.040Z,43.93
2018-12-06T20:17:33.370Z,40.03
2018-12-06T20:20:02.137Z,34.20
2018-12-06T20:22:30.480Z,33.17
2018-12-06T20:38:24.345Z,40.30
2018-12-06T20:54:15.820Z,42.67
2018-12-06T20:59:28.635Z,44.20
2018-12-06T21:01:56.995Z,42.30
2018-12-06T21:04:25.443Z,49.10
2018-12-06T21:06:55.875Z,57.87
2018-12-06T21:09:24.726Z,51.70
2018-12-06T21:11:53.708Z,52.07
2018-12-06T21:14:26.094Z,62.40
2018-12-06T21:35:47.012Z,45.83
2018-12-06T21:38:15.758Z,33.87
2018-12-06T21:40:44.868Z,40.10
2018-12-06T21:43:13.282Z,29.83
2018-12-06T21:45:42.140Z,37.03
2018-12-06T21:48:10.543Z,33.30
2018-12-06T21:50:38.849Z,30.40
2018-12-06T21:53:07.194Z,23.20
2018-12-06T21:55:35.955Z,29.33
2018-12-06T21:58:04.709Z,24.40
2018-12-06T22:00:33.323Z,21.83
2018-12-06T22:03:01.577Z,21.23
2018-12-06T22:05:31.285Z,26.20
2018-12-06T22:07:59.619Z,18.53
2018-12-06T22:10:27.900Z,23.60
2018-12-06T22:12:56.099Z,20.83
2018-12-06T22:15:24.374Z,21.77
2018-12-06T22:17:52.688Z,18.17
2018-12-06T22:20:21.105Z,19.80
2018-12-06T22:22:49.209Z,23.27
2018-12-06T22:25:18.313Z,24.27
2018-12-06T22:27:46.722Z,22.37
2018-12-06T22:30:14.970Z,17.30
2018-12-06T22:32:43.915Z,17.27
2018-12-06T22:35:12.150Z,16.43
2018-12-06T22:37:40.532Z,14.30
2018-12-06T22:40:08.934Z,10.97
2018-12-06T22:42:37.142Z,15.57
2018-12-06T22:45:15.873Z,14.73
2018-12-06T22:47:44.012Z,10.97
2018-12-06T22:50:12.698Z,12.47
2018-12-06T22:52:41.285Z,14.93
2018-12-06T22:55:09.570Z,13.43
2018-12-06T22:57:37.980Z,12.57
2018-12-06T23:00:07.026Z,8.87
2018-12-06T23:02:36.566Z,12.73
2018-12-06T23:05:05.376Z,12.37
2018-12-06T23:07:34.330Z,14.77
2018-12-06T23:10:03.628Z,15.33
2018-12-06T23:12:31.953Z,13.90
2018-12-06T23:15:00.310Z,14.30
2018-12-06T23:17:29.107Z,15.67
2018-12-06T23:19:58.069Z,14.03
2018-12-06T23:22:26.808Z,10.93
2018-12-06T23:24:55.461Z,13.80
2018-12-06T23:27:24.069Z,13.27
2018-12-06T23:29:52.622Z,15.80
2018-12-06T23:32:21.861Z,15.33
2018-12-06T23:34:50.444Z,15.00
2018-12-06T23:37:19.680Z,21.43
2018-12-06T23:39:48.153Z,15.20
2018-12-06T23:42:16.929Z,13.67
2018-12-06T23:44:45.648Z,12.40
2018-12-06T23:47:15.658Z,12.27
2018-12-06T23:49:44.596Z,13.77
2018-12-06T23:52:13.049Z,19.40
2018-12-06T23:54:53.469Z,14.87
2018-12-06T23:57:23.007Z,11.17
2018-12-06T23:59:51.438Z,11.97
